sensor_id;sensor_type;location;lat;lon;timestamp;temperature;humidity
9371;DHT22;4725;48.384;8.984;2023-04-26T00:00:29;4.20;99.90
9371;DHT22;4725;48.384;8.984;2023-04-26T00:02:57;4.30;99.90
9371;DHT22;4725;48.384;8.984;2023-04-26T00:05:25;4.40;99.90
9371;DHT22;4725;48.384;8.984;2023-04-26T00:07:52;4.40;99.90
9371;DHT22;4725;48.384;8.984;2023-04-26T00:10:19;4.40;99.90
9371;DHT22;4725;48.384;8.984;2023-04-26T00:12:46;4.40;99.90
9371;DHT22;4725;48.384;8.984;2023-04-26T00:15:14;4.30;99.90
9371;DHT22;4725;48.384;8.984;2023-04-26T00:17:41;4.30;99.90
9371;DHT22;4725;48.384;8.984;2023-04-26T00:20:09;4.20;99.90
9371;DHT22;4725;48.384;8.984;2023-04-26T00:22:37;4.20;99.90
9371;DHT22;4725;48.384;8.984;2023-04-26T00:25:05;4.20;99.90
9371;DHT22;4725;48.384;8.984;2023-04-26T00:27:32;4.20;99.90
9371;DHT22;4725;48.384;8.984;2023-04-26T00:29:58;4.20;99.90
9371;DHT22;4725;48.384;8.984;2023-04-26T00:32:27;4.30;99.90
9371;DHT22;4725;48.384;8.984;2023-04-26T00:34:53;4.10;99.90
9371;DHT22;4725;48.384;8.984;2023-04-26T00:37:20;4.10;99.90
9371;DHT22;4725;48.384;8.984;2023-04-26T00:39:47;4.10;99.90
9371;DHT22;4725;48.384;8.984;2023-04-26T00:42:14;4.10;99.90
9371;DHT22;4725;48.384;8.984;2023-04-26T00:44:41;4.00;99.90
9371;DHT22;4725;48.384;8.984;2023-04-26T00:47:08;4.00;99.90
9371;DHT22;4725;48.384;8.984;2023-04-26T00:49:36;3.90;99.90
9371;DHT22;4725;48.384;8.984;2023-04-26T00:52:03;4.00;99.90
9371;DHT22;4725;48.384;8.984;2023-04-26T00:54:30;4.10;99.90
9371;DHT22;4725;48.384;8.984;2023-04-26T00:56:57;4.00;99.90
9371;DHT22;4725;48.384;8.984;2023-04-26T00:59:26;4.00;99.90
9371;DHT22;4725;48.384;8.984;2023-04-26T01:01:53;4.00;99.90
9371;DHT22;4725;48.384;8.984;2023-04-26T01:04:19;3.90;99.90
9371;DHT22;4725;48.384;8.984;2023-04-26T01:06:52;3.90;99.90
9371;DHT22;4725;48.384;8.984;2023-04-26T01:09:19;3.90;99.90
9371;DHT22;4725;48.384;8.984;2023-04-26T01:11:46;3.90;99.90
9371;DHT22;4725;48.384;8.984;2023-04-26T01:14:14;3.90;99.90
9371;DHT22;4725;48.384;8.984;2023-04-26T01:16:41;4.00;99.90
9371;DHT22;4725;48.384;8.984;2023-04-26T01:19:11;4.10;99.90
9371;DHT22;4725;48.384;8.984;2023-04-26T01:21:40;4.10;99.90
9371;DHT22;4725;48.384;8.984;2023-04-26T01:24:10;4.10;99.90
9371;DHT22;4725;48.384;8.984;2023-04-26T01:26:37;4.10;99.90
9371;DHT22;4725;48.384;8.984;2023-04-26T01:29:13;4.10;99.90
9371;DHT22;4725;48.384;8.984;2023-04-26T01:31:40;4.10;99.90
9371;DHT22;4725;48.384;8.984;2023-04-26T01:34:07;4.10;99.90
9371;DHT22;4725;48.384;8.984;2023-04-26T01:36:34;4.10;99.90
9371;DHT22;4725;48.384;8.984;2023-04-26T01:39:00;4.00;99.90
9371;DHT22;4725;48.384;8.984;2023-04-26T01:41:29;4.00;99.90
9371;DHT22;4725;48.384;8.984;2023-04-26T01:43:58;4.00;99.90
9371;DHT22;4725;48.384;8.984;2023-04-26T01:46:25;4.10;99.90
9371;DHT22;4725;48.384;8.984;2023-04-26T01:48:51;4.00;99.90
9371;DHT22;4725;48.384;8.984;2023-04-26T01:51:18;4.10;99.90
9371;DHT22;4725;48.384;8.984;2023-04-26T01:53:46;3.90;99.90
9371;DHT22;4725;48.384;8.984;2023-04-26T01:56:12;3.90;99.90
9371;DHT22;4725;48.384;8.984;2023-04-26T01:58:41;3.90;99.90
9371;DHT22;4725;48.384;8.984;2023-04-26T02:01:08;3.90;99.90
9371;DHT22;4725;48.384;8.984;2023-04-26T02:03:35;3.90;99.90
9371;DHT22;4725;48.384;8.984;2023-04-26T02:06:03;3.80;99.90
9371;DHT22;4725;48.384;8.984;2023-04-26T02:08:30;3.70;99.90
9371;DHT22;4725;48.384;8.984;2023-04-26T02:10:57;3.60;99.90
9371;DHT22;4725;48.384;8.984;2023-04-26T02:13:24;3.50;99.90
9371;DHT22;4725;48.384;8.984;2023-04-26T02:15:52;3.40;99.90
9371;DHT22;4725;48.384;8.984;2023-04-26T02:18:19;3.50;99.90
9371;DHT22;4725;48.384;8.984;2023-04-26T02:20:47;3.50;99.90
9371;DHT22;4725;48.384;8.984;2023-04-26T02:23:14;3.60;99.90
9371;DHT22;4725;48.384;8.984;2023-04-26T02:25:41;3.40;99.90
9371;DHT22;4725;48.384;8.984;2023-04-26T02:28:10;3.30;99.90
9371;DHT22;4725;48.384;8.984;2023-04-26T02:30:37;3.30;99.90
9371;DHT22;4725;48.384;8.984;2023-04-26T02:33:05;3.40;99.90
9371;DHT22;4725;48.384;8.984;2023-04-26T02:35:33;3.40;99.90
9371;DHT22;4725;48.384;8.984;2023-04-26T02:38:00;3.30;99.90
9371;DHT22;4725;48.384;8.984;2023-04-26T02:40:27;3.30;99.90
9371;DHT22;4725;48.384;8.984;2023-04-26T02:42:54;3.30;99.90
9371;DHT22;4725;48.384;8.984;2023-04-26T02:45:22;3.30;99.90
9371;DHT22;4725;48.384;8.984;2023-04-26T02:47:48;3.40;99.90
9371;DHT22;4725;48.384;8.984;2023-04-26T02:50:17;3.40;99.90
9371;DHT22;4725;48.384;8.984;2023-04-26T02:52:44;3.40;99.90
9371;DHT22;4725;48.384;8.984;2023-04-26T02:55:10;3.30;99.90
9371;DHT22;4725;48.384;8.984;2023-04-26T02:57:37;3.40;99.90
9371;DHT22;4725;48.384;8.984;2023-04-26T03:00:05;3.40;99.90
9371;DHT22;4725;48.384;8.984;2023-04-26T03:02:32;3.30;99.90
9371;DHT22;4725;48.384;8.984;2023-04-26T03:04:59;3.30;99.90
9371;DHT22;4725;48.384;8.984;2023-04-26T03:07:28;3.20;99.90
9371;DHT22;4725;48.384;8.984;2023-04-26T03:09:55;3.20;99.90
9371;DHT22;4725;48.384;8.984;2023-04-26T03:12:22;3.30;99.90
9371;DHT22;4725;48.384;8.984;2023-04-26T03:14:49;3.30;99.90
9371;DHT22;4725;48.384;8.984;2023-04-26T03:17:16;3.30;99.90
9371;DHT22;4725;48.384;8.984;2023-04-26T03:19:43;3.20;99.90
9371;DHT22;4725;48.384;8.984;2023-04-26T03:22:09;3.10;99.90
9371;DHT22;4725;48.384;8.984;2023-04-26T03:24:41;3.00;99.90
9371;DHT22;4725;48.384;8.984;2023-04-26T03:27:08;3.00;99.90
9371;DHT22;4725;48.384;8.984;2023-04-26T03:29:35;3.00;99.90
9371;DHT22;4725;48.384;8.984;2023-04-26T03:32:02;2.90;99.90
9371;DHT22;4725;48.384;8.984;2023-04-26T03:34:29;3.00;99.90
9371;DHT22;4725;48.384;8.984;2023-04-26T03:36:56;2.80;99.90
9371;DHT22;4725;48.384;8.984;2023-04-26T03:39:23;2.70;99.90
9371;DHT22;4725;48.384;8.984;2023-04-26T03:41:51;2.80;99.90
9371;DHT22;4725;48.384;8.984;2023-04-26T03:44:18;2.80;99.90
9371;DHT22;4725;48.384;8.984;2023-04-26T03:46:44;3.00;99.90
9371;DHT22;4725;48.384;8.984;2023-04-26T03:49:13;2.70;99.90
9371;DHT22;4725;48.384;8.984;2023-04-26T03:51:40;2.60;99.90
9371;DHT22;4725;48.384;8.984;2023-04-26T03:54:07;2.60;99.90
9371;DHT22;4725;48.384;8.984;2023-04-26T03:56:34;2.50;99.90
9371;DHT22;4725;48.384;8.984;2023-04-26T03:59:02;2.50;99.90
9371;DHT22;4725;48.384;8.984;2023-04-26T04:01:29;2.50;99.90
9371;DHT22;4725;48.384;8.984;2023-04-26T04:03:56;2.50;99.90
9371;DHT22;4725;48.384;8.984;2023-04-26T04:06:23;2.50;99.90
9371;DHT22;4725;48.384;8.984;2023-04-26T04:08:51;2.40;99.90
9371;DHT22;4725;48.384;8.984;2023-04-26T04:11:17;2.40;99.90
9371;DHT22;4725;48.384;8.984;2023-04-26T04:13:44;2.30;99.90
9371;DHT22;4725;48.384;8.984;2023-04-26T04:16:13;2.40;99.90
9371;DHT22;4725;48.384;8.984;2023-04-26T04:18:39;2.20;99.90
9371;DHT22;4725;48.384;8.984;2023-04-26T04:21:06;2.10;99.90
9371;DHT22;4725;48.384;8.984;2023-04-26T04:23:33;1.90;99.90
9371;DHT22;4725;48.384;8.984;2023-04-26T04:26:00;1.70;99.90
9371;DHT22;4725;48.384;8.984;2023-04-26T04:28:27;1.60;99.90
9371;DHT22;4725;48.384;8.984;2023-04-26T04:30:54;1.60;99.90
9371;DHT22;4725;48.384;8.984;2023-04-26T04:33:23;1.60;99.90
9371;DHT22;4725;48.384;8.984;2023-04-26T04:35:53;1.70;99.90
9371;DHT22;4725;48.384;8.984;2023-04-26T04:38:20;1.80;99.90
9371;DHT22;4725;48.384;8.984;2023-04-26T04:40:47;1.90;99.90
9371;DHT22;4725;48.384;8.984;2023-04-26T04:43:15;1.90;99.90
9371;DHT22;4725;48.384;8.984;2023-04-26T04:45:42;1.90;99.90
9371;DHT22;4725;48.384;8.984;2023-04-26T04:48:09;1.90;99.90
9371;DHT22;4725;48.384;8.984;2023-04-26T04:50:37;1.80;99.90
9371;DHT22;4725;48.384;8.984;2023-04-26T04:53:04;1.80;99.90
9371;DHT22;4725;48.384;8.984;2023-04-26T04:55:31;1.80;99.90
9371;DHT22;4725;48.384;8.984;2023-04-26T04:57:58;1.90;99.90
9371;DHT22;4725;48.384;8.984;2023-04-26T05:00:26;1.90;99.90
9371;DHT22;4725;48.384;8.984;2023-04-26T05:02:53;2.00;99.90
9371;DHT22;4725;48.384;8.984;2023-04-26T05:05:20;1.90;99.90
9371;DHT22;4725;48.384;8.984;2023-04-26T05:07:49;1.90;99.90
9371;DHT22;4725;48.384;8.984;2023-04-26T05:10:16;1.90;99.90
9371;DHT22;4725;48.384;8.984;2023-04-26T05:12:42;1.90;99.90
9371;DHT22;4725;48.384;8.984;2023-04-26T05:15:10;1.80;99.90
9371;DHT22;4725;48.384;8.984;2023-04-26T05:17:36;1.80;99.90
9371;DHT22;4725;48.384;8.984;2023-04-26T05:20:04;1.80;99.90
9371;DHT22;4725;48.384;8.984;2023-04-26T05:22:32;1.80;99.90
9371;DHT22;4725;48.384;8.984;2023-04-26T05:25:02;2.00;99.90
9371;DHT22;4725;48.384;8.984;2023-04-26T05:27:29;2.00;99.90
9371;DHT22;4725;48.384;8.984;2023-04-26T05:29:57;2.10;99.90
9371;DHT22;4725;48.384;8.984;2023-04-26T05:32:23;2.20;99.90
9371;DHT22;4725;48.384;8.984;2023-04-26T05:34:50;2.40;99.90
9371;DHT22;4725;48.384;8.984;2023-04-26T05:37:17;2.50;99.90
9371;DHT22;4725;48.384;8.984;2023-04-26T05:39:44;2.70;99.90
9371;DHT22;4725;48.384;8.984;2023-04-26T05:42:12;2.70;99.90
9371;DHT22;4725;48.384;8.984;2023-04-26T05:44:39;2.80;99.90
9371;DHT22;4725;48.384;8.984;2023-04-26T05:47:07;2.80;99.90
9371;DHT22;4725;48.384;8.984;2023-04-26T05:49:34;2.80;99.90
9371;DHT22;4725;48.384;8.984;2023-04-26T05:52:01;2.90;99.90
9371;DHT22;4725;48.384;8.984;2023-04-26T05:54:29;3.00;99.90
9371;DHT22;4725;48.384;8.984;2023-04-26T05:56:55;3.10;99.90
9371;DHT22;4725;48.384;8.984;2023-04-26T05:59:24;3.20;99.90
9371;DHT22;4725;48.384;8.984;2023-04-26T06:01:50;3.30;99.90
9371;DHT22;4725;48.384;8.984;2023-04-26T06:04:17;3.50;99.90
9371;DHT22;4725;48.384;8.984;2023-04-26T06:06:44;3.70;99.90
9371;DHT22;4725;48.384;8.984;2023-04-26T06:09:11;4.00;99.90
9371;DHT22;4725;48.384;8.984;2023-04-26T06:11:38;3.90;99.90
9371;DHT22;4725;48.384;8.984;2023-04-26T06:14:05;4.00;99.90
9371;DHT22;4725;48.384;8.984;2023-04-26T06:16:33;4.10;99.90
9371;DHT22;4725;48.384;8.984;2023-04-26T06:19:00;4.20;99.90
9371;DHT22;4725;48.384;8.984;2023-04-26T06:21:27;4.30;99.90
9371;DHT22;4725;48.384;8.984;2023-04-26T06:23:53;4.60;99.90
9371;DHT22;4725;48.384;8.984;2023-04-26T06:26:22;4.70;99.90
9371;DHT22;4725;48.384;8.984;2023-04-26T06:28:51;4.60;99.90
9371;DHT22;4725;48.384;8.984;2023-04-26T06:31:19;4.60;99.90
9371;DHT22;4725;48.384;8.984;2023-04-26T06:33:51;4.60;99.90
9371;DHT22;4725;48.384;8.984;2023-04-26T06:36:20;4.40;99.90
9371;DHT22;4725;48.384;8.984;2023-04-26T06:38:52;4.60;99.90
9371;DHT22;4725;48.384;8.984;2023-04-26T06:41:19;4.70;99.90
9371;DHT22;4725;48.384;8.984;2023-04-26T06:43:47;4.80;99.90
9371;DHT22;4725;48.384;8.984;2023-04-26T06:46:14;4.70;99.90
9371;DHT22;4725;48.384;8.984;2023-04-26T06:48:41;4.60;99.90
9371;DHT22;4725;48.384;8.984;2023-04-26T06:51:09;4.60;99.90
9371;DHT22;4725;48.384;8.984;2023-04-26T06:53:36;4.70;99.90
9371;DHT22;4725;48.384;8.984;2023-04-26T06:56:03;4.90;99.90
9371;DHT22;4725;48.384;8.984;2023-04-26T06:58:30;4.80;99.90
9371;DHT22;4725;48.384;8.984;2023-04-26T07:00:57;4.80;99.90
9371;DHT22;4725;48.384;8.984;2023-04-26T07:03:24;5.00;99.90
9371;DHT22;4725;48.384;8.984;2023-04-26T07:05:51;5.00;99.90
9371;DHT22;4725;48.384;8.984;2023-04-26T07:08:19;5.40;99.90
9371;DHT22;4725;48.384;8.984;2023-04-26T07:10:46;5.50;99.90
9371;DHT22;4725;48.384;8.984;2023-04-26T07:13:13;5.30;99.90
9371;DHT22;4725;48.384;8.984;2023-04-26T07:15:39;5.20;99.90
9371;DHT22;4725;48.384;8.984;2023-04-26T07:18:07;5.50;99.90
9371;DHT22;4725;48.384;8.984;2023-04-26T07:20:34;5.60;99.90
9371;DHT22;4725;48.384;8.984;2023-04-26T07:23:00;5.80;99.90
9371;DHT22;4725;48.384;8.984;2023-04-26T07:25:29;6.20;99.90
9371;DHT22;4725;48.384;8.984;2023-04-26T07:27:56;6.00;99.90
9371;DHT22;4725;48.384;8.984;2023-04-26T07:30:23;6.00;99.90
9371;DHT22;4725;48.384;8.984;2023-04-26T07:32:49;6.10;99.90
9371;DHT22;4725;48.384;8.984;2023-04-26T07:35:17;6.00;99.90
9371;DHT22;4725;48.384;8.984;2023-04-26T07:37:44;6.10;99.90
9371;DHT22;4725;48.384;8.984;2023-04-26T07:40:12;6.10;99.90
9371;DHT22;4725;48.384;8.984;2023-04-26T07:42:40;6.20;99.90
9371;DHT22;4725;48.384;8.984;2023-04-26T07:45:08;6.50;99.90
9371;DHT22;4725;48.384;8.984;2023-04-26T07:47:35;7.00;99.90
9371;DHT22;4725;48.384;8.984;2023-04-26T07:50:03;7.00;99.90
9371;DHT22;4725;48.384;8.984;2023-04-26T07:52:29;7.30;99.90
9371;DHT22;4725;48.384;8.984;2023-04-26T07:54:56;7.40;99.90
9371;DHT22;4725;48.384;8.984;2023-04-26T07:57:23;7.30;99.90
9371;DHT22;4725;48.384;8.984;2023-04-26T07:59:51;7.20;99.90
9371;DHT22;4725;48.384;8.984;2023-04-26T08:02:18;7.30;99.90
9371;DHT22;4725;48.384;8.984;2023-04-26T08:04:49;7.40;99.90
9371;DHT22;4725;48.384;8.984;2023-04-26T08:07:16;7.30;99.90
9371;DHT22;4725;48.384;8.984;2023-04-26T08:09:44;7.20;99.90
9371;DHT22;4725;48.384;8.984;2023-04-26T08:12:10;7.30;99.90
9371;DHT22;4725;48.384;8.984;2023-04-26T08:14:37;7.30;99.90
9371;DHT22;4725;48.384;8.984;2023-04-26T08:17:06;7.30;99.90
9371;DHT22;4725;48.384;8.984;2023-04-26T08:19:33;7.40;99.90
9371;DHT22;4725;48.384;8.984;2023-04-26T08:22:00;7.60;99.90
9371;DHT22;4725;48.384;8.984;2023-04-26T08:24:30;7.50;99.90
9371;DHT22;4725;48.384;8.984;2023-04-26T08:26:57;7.90;99.90
9371;DHT22;4725;48.384;8.984;2023-04-26T08:29:25;8.20;99.90
9371;DHT22;4725;48.384;8.984;2023-04-26T08:34:20;9.00;99.90
9371;DHT22;4725;48.384;8.984;2023-04-26T08:36:47;8.90;99.90
9371;DHT22;4725;48.384;8.984;2023-04-26T08:39:14;8.90;99.90
9371;DHT22;4725;48.384;8.984;2023-04-26T08:41:46;9.00;99.90
9371;DHT22;4725;48.384;8.984;2023-04-26T08:44:16;9.20;99.90
9371;DHT22;4725;48.384;8.984;2023-04-26T08:46:54;9.20;99.90
9371;DHT22;4725;48.384;8.984;2023-04-26T08:49:35;9.40;99.90
9371;DHT22;4725;48.384;8.984;2023-04-26T08:52:08;9.40;99.90
9371;DHT22;4725;48.384;8.984;2023-04-26T08:54:36;8.70;99.90
9371;DHT22;4725;48.384;8.984;2023-04-26T08:57:03;8.70;99.90
9371;DHT22;4725;48.384;8.984;2023-04-26T08:59:32;9.00;99.90
9371;DHT22;4725;48.384;8.984;2023-04-26T09:01:59;9.70;99.90
9371;DHT22;4725;48.384;8.984;2023-04-26T09:04:28;10.10;99.90
9371;DHT22;4725;48.384;8.984;2023-04-26T09:06:59;9.90;99.90
9371;DHT22;4725;48.384;8.984;2023-04-26T09:09:27;9.90;99.90
9371;DHT22;4725;48.384;8.984;2023-04-26T09:11:55;9.60;99.90
9371;DHT22;4725;48.384;8.984;2023-04-26T09:14:22;9.40;99.90
9371;DHT22;4725;48.384;8.984;2023-04-26T09:16:49;9.50;99.90
9371;DHT22;4725;48.384;8.984;2023-04-26T09:19:17;10.00;99.90
9371;DHT22;4725;48.384;8.984;2023-04-26T09:22:01;9.90;99.90
9371;DHT22;4725;48.384;8.984;2023-04-26T09:24:28;10.10;99.90
9371;DHT22;4725;48.384;8.984;2023-04-26T09:27:11;10.20;99.90
9371;DHT22;4725;48.384;8.984;2023-04-26T09:29:38;10.70;99.90
9371;DHT22;4725;48.384;8.984;2023-04-26T09:32:05;10.70;99.90
9371;DHT22;4725;48.384;8.984;2023-04-26T09:34:43;10.60;99.90
9371;DHT22;4725;48.384;8.984;2023-04-26T09:37:12;10.60;99.90
9371;DHT22;4725;48.384;8.984;2023-04-26T09:39:40;10.60;99.90
9371;DHT22;4725;48.384;8.984;2023-04-26T09:42:08;10.80;99.90
9371;DHT22;4725;48.384;8.984;2023-04-26T09:44:36;11.20;99.90
9371;DHT22;4725;48.384;8.984;2023-04-26T09:47:04;11.60;99.90
9371;DHT22;4725;48.384;8.984;2023-04-26T09:49:41;11.50;99.90
9371;DHT22;4725;48.384;8.984;2023-04-26T09:52:08;11.70;99.90
9371;DHT22;4725;48.384;8.984;2023-04-26T09:54:44;12.10;99.90
9371;DHT22;4725;48.384;8.984;2023-04-26T09:57:12;12.30;99.90
9371;DHT22;4725;48.384;8.984;2023-04-26T09:59:40;12.60;99.90
9371;DHT22;4725;48.384;8.984;2023-04-26T10:02:13;13.00;99.90
9371;DHT22;4725;48.384;8.984;2023-04-26T10:04:42;13.70;99.90
9371;DHT22;4725;48.384;8.984;2023-04-26T10:07:11;13.40;99.90
9371;DHT22;4725;48.384;8.984;2023-04-26T10:09:38;13.00;99.90
9371;DHT22;4725;48.384;8.984;2023-04-26T10:12:08;13.20;99.90
9371;DHT22;4725;48.384;8.984;2023-04-26T10:14:35;13.40;99.90
9371;DHT22;4725;48.384;8.984;2023-04-26T10:17:03;12.60;99.90
9371;DHT22;4725;48.384;8.984;2023-04-26T10:19:31;12.20;99.90
9371;DHT22;4725;48.384;8.984;2023-04-26T10:22:03;13.30;99.90
9371;DHT22;4725;48.384;8.984;2023-04-26T10:24:30;14.00;99.90
9371;DHT22;4725;48.384;8.984;2023-04-26T10:26:57;14.10;99.90
9371;DHT22;4725;48.384;8.984;2023-04-26T10:30:06;14.30;99.90
9371;DHT22;4725;48.384;8.984;2023-04-26T10:33:10;14.10;99.40
9371;DHT22;4725;48.384;8.984;2023-04-26T10:36:08;13.80;99.90
9371;DHT22;4725;48.384;8.984;2023-04-26T10:38:38;14.30;99.90
9371;DHT22;4725;48.384;8.984;2023-04-26T10:41:30;14.40;99.90
9371;DHT22;4725;48.384;8.984;2023-04-26T10:43:59;14.60;99.90
9371;DHT22;4725;48.384;8.984;2023-04-26T10:46:35;14.70;99.90
9371;DHT22;4725;48.384;8.984;2023-04-26T10:49:13;14.50;99.90
9371;DHT22;4725;48.384;8.984;2023-04-26T10:51:40;15.50;99.90
9371;DHT22;4725;48.384;8.984;2023-04-26T10:54:07;15.50;98.00
9371;DHT22;4725;48.384;8.984;2023-04-26T10:56:50;14.70;96.70
9371;DHT22;4725;48.384;8.984;2023-04-26T10:59:19;14.50;98.50
9371;DHT22;4725;48.384;8.984;2023-04-26T11:01:47;14.00;97.00
9371;DHT22;4725;48.384;8.984;2023-04-26T11:04:14;14.00;99.90
9371;DHT22;4725;48.384;8.984;2023-04-26T11:06:48;14.80;99.90
9371;DHT22;4725;48.384;8.984;2023-04-26T11:09:35;14.80;99.90
9371;DHT22;4725;48.384;8.984;2023-04-26T11:12:09;14.50;99.90
9371;DHT22;4725;48.384;8.984;2023-04-26T11:14:37;14.00;99.90
9371;DHT22;4725;48.384;8.984;2023-04-26T11:17:06;14.00;99.90
9371;DHT22;4725;48.384;8.984;2023-04-26T11:19:33;14.40;99.90
9371;DHT22;4725;48.384;8.984;2023-04-26T11:22:01;14.30;99.90
9371;DHT22;4725;48.384;8.984;2023-04-26T11:24:30;14.70;99.90
9371;DHT22;4725;48.384;8.984;2023-04-26T11:26:57;15.10;99.90
9371;DHT22;4725;48.384;8.984;2023-04-26T11:29:24;15.70;99.90
9371;DHT22;4725;48.384;8.984;2023-04-26T11:31:52;16.40;98.70
9371;DHT22;4725;48.384;8.984;2023-04-26T11:34:30;15.40;97.20
9371;DHT22;4725;48.384;8.984;2023-04-26T11:39:25;16.00;98.00
9371;DHT22;4725;48.384;8.984;2023-04-26T11:41:55;16.40;97.80
9371;DHT22;4725;48.384;8.984;2023-04-26T11:44:29;16.10;95.60
9371;DHT22;4725;48.384;8.984;2023-04-26T11:46:57;17.10;97.30
9371;DHT22;4725;48.384;8.984;2023-04-26T11:49:27;17.60;94.50
9371;DHT22;4725;48.384;8.984;2023-04-26T11:51:54;17.40;96.60
9371;DHT22;4725;48.384;8.984;2023-04-26T11:54:27;17.40;93.60
9371;DHT22;4725;48.384;8.984;2023-04-26T11:56:55;17.20;94.80
9371;DHT22;4725;48.384;8.984;2023-04-26T11:59:26;17.80;94.70
9371;DHT22;4725;48.384;8.984;2023-04-26T12:01:54;18.40;93.10
9371;DHT22;4725;48.384;8.984;2023-04-26T12:04:27;18.70;93.70
9371;DHT22;4725;48.384;8.984;2023-04-26T12:06:55;19.50;93.10
9371;DHT22;4725;48.384;8.984;2023-04-26T12:09:22;19.30;94.20
9371;DHT22;4725;48.384;8.984;2023-04-26T12:11:55;19.60;91.60
9371;DHT22;4725;48.384;8.984;2023-04-26T12:14:23;18.60;92.00
9371;DHT22;4725;48.384;8.984;2023-04-26T12:16:58;18.50;92.90
9371;DHT22;4725;48.384;8.984;2023-04-26T12:19:24;18.20;93.60
9371;DHT22;4725;48.384;8.984;2023-04-26T12:21:53;18.50;92.40
9371;DHT22;4725;48.384;8.984;2023-04-26T12:24:21;17.70;92.80
9371;DHT22;4725;48.384;8.984;2023-04-26T12:26:48;17.80;93.50
9371;DHT22;4725;48.384;8.984;2023-04-26T12:29:15;17.10;91.40
9371;DHT22;4725;48.384;8.984;2023-04-26T12:31:42;17.00;94.80
9371;DHT22;4725;48.384;8.984;2023-04-26T12:34:09;17.20;94.20
9371;DHT22;4725;48.384;8.984;2023-04-26T12:36:37;18.20;92.90
9371;DHT22;4725;48.384;8.984;2023-04-26T12:39:05;19.30;92.50
9371;DHT22;4725;48.384;8.984;2023-04-26T12:41:32;20.30;92.70
9371;DHT22;4725;48.384;8.984;2023-04-26T12:43:59;20.90;87.60
9371;DHT22;4725;48.384;8.984;2023-04-26T12:46:27;20.40;87.30
9371;DHT22;4725;48.384;8.984;2023-04-26T12:48:53;20.60;85.50
9371;DHT22;4725;48.384;8.984;2023-04-26T12:51:20;20.30;86.60
9371;DHT22;4725;48.384;8.984;2023-04-26T12:53:47;21.00;84.70
9371;DHT22;4725;48.384;8.984;2023-04-26T12:56:16;21.10;86.10
9371;DHT22;4725;48.384;8.984;2023-04-26T12:58:43;19.20;87.70
9371;DHT22;4725;48.384;8.984;2023-04-26T13:01:12;18.20;90.20
9371;DHT22;4725;48.384;8.984;2023-04-26T13:03:39;16.40;90.90
9371;DHT22;4725;48.384;8.984;2023-04-26T13:06:06;14.60;92.20
9371;DHT22;4725;48.384;8.984;2023-04-26T13:08:33;15.10;92.80
9371;DHT22;4725;48.384;8.984;2023-04-26T13:11:00;15.40;93.90
9371;DHT22;4725;48.384;8.984;2023-04-26T13:13:28;16.60;93.40
9371;DHT22;4725;48.384;8.984;2023-04-26T13:15:55;17.30;90.20
9371;DHT22;4725;48.384;8.984;2023-04-26T13:18:22;16.60;92.00
9371;DHT22;4725;48.384;8.984;2023-04-26T13:20:49;16.20;91.70
9371;DHT22;4725;48.384;8.984;2023-04-26T13:23:16;16.50;92.60
9371;DHT22;4725;48.384;8.984;2023-04-26T13:25:43;16.40;92.10
9371;DHT22;4725;48.384;8.984;2023-04-26T13:28:09;16.50;90.00
9371;DHT22;4725;48.384;8.984;2023-04-26T13:30:38;16.40;90.90
9371;DHT22;4725;48.384;8.984;2023-04-26T13:33:05;16.20;91.00
9371;DHT22;4725;48.384;8.984;2023-04-26T13:35:31;16.80;90.30
9371;DHT22;4725;48.384;8.984;2023-04-26T13:37:58;17.30;91.40
9371;DHT22;4725;48.384;8.984;2023-04-26T13:40:25;17.30;91.60
9371;DHT22;4725;48.384;8.984;2023-04-26T13:42:52;17.40;91.60
9371;DHT22;4725;48.384;8.984;2023-04-26T13:45:19;17.00;90.20
9371;DHT22;4725;48.384;8.984;2023-04-26T13:47:47;16.40;92.70
9371;DHT22;4725;48.384;8.984;2023-04-26T13:50:14;16.40;92.80
9371;DHT22;4725;48.384;8.984;2023-04-26T13:52:41;17.70;90.60
9371;DHT22;4725;48.384;8.984;2023-04-26T13:55:08;18.00;92.00
9371;DHT22;4725;48.384;8.984;2023-04-26T13:57:35;19.10;90.30
9371;DHT22;4725;48.384;8.984;2023-04-26T14:00:02;18.50;90.40
9371;DHT22;4725;48.384;8.984;2023-04-26T14:02:29;18.40;90.60
9371;DHT22;4725;48.384;8.984;2023-04-26T14:04:57;18.10;90.00
9371;DHT22;4725;48.384;8.984;2023-04-26T14:07:24;17.60;91.20
9371;DHT22;4725;48.384;8.984;2023-04-26T14:09:51;17.30;91.50
9371;DHT22;4725;48.384;8.984;2023-04-26T14:12:18;16.90;90.90
9371;DHT22;4725;48.384;8.984;2023-04-26T14:14:45;17.10;91.60
9371;DHT22;4725;48.384;8.984;2023-04-26T14:17:12;17.90;90.40
9371;DHT22;4725;48.384;8.984;2023-04-26T14:19:39;18.90;90.70
9371;DHT22;4725;48.384;8.984;2023-04-26T14:22:08;20.10;90.40
9371;DHT22;4725;48.384;8.984;2023-04-26T14:24:37;20.00;88.20
9371;DHT22;4725;48.384;8.984;2023-04-26T14:27:04;19.80;88.10
9371;DHT22;4725;48.384;8.984;2023-04-26T14:29:30;19.10;89.00
9371;DHT22;4725;48.384;8.984;2023-04-26T14:31:57;18.50;91.20
9371;DHT22;4725;48.384;8.984;2023-04-26T14:34:24;18.50;90.20
9371;DHT22;4725;48.384;8.984;2023-04-26T14:36:51;18.10;92.00
9371;DHT22;4725;48.384;8.984;2023-04-26T14:39:19;18.30;91.20
9371;DHT22;4725;48.384;8.984;2023-04-26T14:41:46;18.70;90.70
9371;DHT22;4725;48.384;8.984;2023-04-26T14:44:13;18.40;90.20
9371;DHT22;4725;48.384;8.984;2023-04-26T14:46:40;17.80;91.10
9371;DHT22;4725;48.384;8.984;2023-04-26T14:49:07;17.60;90.60
9371;DHT22;4725;48.384;8.984;2023-04-26T14:51:34;17.60;89.10
9371;DHT22;4725;48.384;8.984;2023-04-26T14:54:01;17.80;90.70
9371;DHT22;4725;48.384;8.984;2023-04-26T14:56:32;17.50;90.70
9371;DHT22;4725;48.384;8.984;2023-04-26T14:58:59;17.70;91.30
9371;DHT22;4725;48.384;8.984;2023-04-26T15:01:26;17.70;90.70
9371;DHT22;4725;48.384;8.984;2023-04-26T15:03:53;17.30;92.60
9371;DHT22;4725;48.384;8.984;2023-04-26T15:06:20;18.00;92.60
9371;DHT22;4725;48.384;8.984;2023-04-26T15:08:48;19.20;91.20
9371;DHT22;4725;48.384;8.984;2023-04-26T15:11:15;19.10;91.40
9371;DHT22;4725;48.384;8.984;2023-04-26T15:13:43;19.00;90.30
9371;DHT22;4725;48.384;8.984;2023-04-26T15:16:10;18.50;91.30
9371;DHT22;4725;48.384;8.984;2023-04-26T15:18:37;17.50;91.20
9371;DHT22;4725;48.384;8.984;2023-04-26T15:21:04;17.30;91.50
9371;DHT22;4725;48.384;8.984;2023-04-26T15:23:31;16.30;93.70
9371;DHT22;4725;48.384;8.984;2023-04-26T15:26:00;16.50;92.70
9371;DHT22;4725;48.384;8.984;2023-04-26T15:28:27;16.60;93.00
9371;DHT22;4725;48.384;8.984;2023-04-26T15:31:01;16.80;92.90
9371;DHT22;4725;48.384;8.984;2023-04-26T15:33:28;18.40;90.80
9371;DHT22;4725;48.384;8.984;2023-04-26T15:35:55;19.20;89.20
9371;DHT22;4725;48.384;8.984;2023-04-26T15:38:23;18.30;91.20
9371;DHT22;4725;48.384;8.984;2023-04-26T15:40:51;18.30;91.30
9371;DHT22;4725;48.384;8.984;2023-04-26T15:43:18;19.20;90.50
9371;DHT22;4725;48.384;8.984;2023-04-26T15:45:45;20.60;90.60
9371;DHT22;4725;48.384;8.984;2023-04-26T15:48:14;21.90;88.40
9371;DHT22;4725;48.384;8.984;2023-04-26T15:50:41;22.40;83.70
9371;DHT22;4725;48.384;8.984;2023-04-26T15:53:08;22.00;84.30
9371;DHT22;4725;48.384;8.984;2023-04-26T15:55:35;21.40;82.90
9371;DHT22;4725;48.384;8.984;2023-04-26T15:58:02;20.30;89.10
9371;DHT22;4725;48.384;8.984;2023-04-26T16:00:29;20.50;89.60
9371;DHT22;4725;48.384;8.984;2023-04-26T16:02:56;21.10;87.00
9371;DHT22;4725;48.384;8.984;2023-04-26T16:05:25;22.80;87.90
9371;DHT22;4725;48.384;8.984;2023-04-26T16:07:52;24.30;80.30
9371;DHT22;4725;48.384;8.984;2023-04-26T16:10:19;24.20;80.90
9371;DHT22;4725;48.384;8.984;2023-04-26T16:12:46;23.20;79.60
9371;DHT22;4725;48.384;8.984;2023-04-26T16:15:13;23.10;81.80
9371;DHT22;4725;48.384;8.984;2023-04-26T16:17:39;22.50;81.80
9371;DHT22;4725;48.384;8.984;2023-04-26T16:20:07;22.30;81.60
9371;DHT22;4725;48.384;8.984;2023-04-26T16:22:36;22.50;80.50